sensor_id;sensor_type;location;lat;lon;timestamp;temperature;humidity
27781;DHT22;15167;1.318;103.762;2022-12-07T00:01:31;25.60;99.90
27781;DHT22;15167;1.318;103.762;2022-12-07T00:03:59;25.60;99.90
27781;DHT22;15167;1.318;103.762;2022-12-07T00:06:32;25.50;99.90
27781;DHT22;15167;1.318;103.762;2022-12-07T00:08:59;25.50;99.90
27781;DHT22;15167;1.318;103.762;2022-12-07T00:11:25;25.60;99.90
27781;DHT22;15167;1.318;103.762;2022-12-07T00:13:52;25.60;99.90
27781;DHT22;15167;1.318;103.762;2022-12-07T00:16:19;25.70;99.90
27781;DHT22;15167;1.318;103.762;2022-12-07T00:18:45;25.70;99.90
27781;DHT22;15167;1.318;103.762;2022-12-07T00:23:38;25.80;99.90
27781;DHT22;15167;1.318;103.762;2022-12-07T00:26:08;25.90;99.90
27781;DHT22;15167;1.318;103.762;2022-12-07T00:28:35;25.80;99.90
27781;DHT22;15167;1.318;103.762;2022-12-07T00:31:05;25.80;99.90
27781;DHT22;15167;1.318;103.762;2022-12-07T00:33:32;25.90;99.90
27781;DHT22;15167;1.318;103.762;2022-12-07T00:35:59;25.90;99.90
27781;DHT22;15167;1.318;103.762;2022-12-07T00:38:26;25.80;99.90
27781;DHT22;15167;1.318;103.762;2022-12-07T00:40:54;25.90;99.90
27781;DHT22;15167;1.318;103.762;2022-12-07T00:43:20;25.90;99.90
27781;DHT22;15167;1.318;103.762;2022-12-07T00:45:46;25.90;99.90
27781;DHT22;15167;1.318;103.762;2022-12-07T00:48:12;25.90;99.90
27781;DHT22;15167;1.318;103.762;2022-12-07T00:50:38;25.90;99.90
27781;DHT22;15167;1.318;103.762;2022-12-07T00:53:04;25.80;99.90
27781;DHT22;15167;1.318;103.762;2022-12-07T00:55:34;25.80;99.90
27781;DHT22;15167;1.318;103.762;2022-12-07T00:58:00;25.90;99.90
27781;DHT22;15167;1.318;103.762;2022-12-07T01:00:26;26.00;99.90
27781;DHT22;15167;1.318;103.762;2022-12-07T01:02:52;26.00;99.90
27781;DHT22;15167;1.318;103.762;2022-12-07T01:05:18;26.10;99.90
27781;DHT22;15167;1.318;103.762;2022-12-07T01:07:44;26.10;99.90
27781;DHT22;15167;1.318;103.762;2022-12-07T01:10:12;26.10;99.90
27781;DHT22;15167;1.318;103.762;2022-12-07T01:12:38;26.10;99.90
27781;DHT22;15167;1.318;103.762;2022-12-07T01:15:04;26.20;99.90
27781;DHT22;15167;1.318;103.762;2022-12-07T01:17:31;26.20;99.90
27781;DHT22;15167;1.318;103.762;2022-12-07T01:19:57;26.20;99.90
27781;DHT22;15167;1.318;103.762;2022-12-07T01:22:23;26.10;99.90
27781;DHT22;15167;1.318;103.762;2022-12-07T01:24:49;26.20;99.90
27781;DHT22;15167;1.318;103.762;2022-12-07T01:27:15;26.30;99.90
27781;DHT22;15167;1.318;103.762;2022-12-07T01:29:41;26.30;99.90
27781;DHT22;15167;1.318;103.762;2022-12-07T01:32:07;26.40;99.90
27781;DHT22;15167;1.318;103.762;2022-12-07T01:34:34;26.40;99.90
27781;DHT22;15167;1.318;103.762;2022-12-07T01:37:00;26.50;99.90
27781;DHT22;15167;1.318;103.762;2022-12-07T01:39:26;26.50;99.90
27781;DHT22;15167;1.318;103.762;2022-12-07T01:41:52;26.60;99.90
27781;DHT22;15167;1.318;103.762;2022-12-07T01:44:23;26.70;99.90
27781;DHT22;15167;1.318;103.762;2022-12-07T01:46:56;26.70;99.90
27781;DHT22;15167;1.318;103.762;2022-12-07T01:49:25;26.70;99.90
27781;DHT22;15167;1.318;103.762;2022-12-07T01:51:52;26.70;99.90
27781;DHT22;15167;1.318;103.762;2022-12-07T01:54:20;26.80;99.90
27781;DHT22;15167;1.318;103.762;2022-12-07T01:56:49;26.80;99.90
27781;DHT22;15167;1.318;103.762;2022-12-07T01:59:16;26.90;99.90
27781;DHT22;15167;1.318;103.762;2022-12-07T02:01:43;26.90;99.90
27781;DHT22;15167;1.318;103.762;2022-12-07T02:04:10;27.00;99.90
27781;DHT22;15167;1.318;103.762;2022-12-07T02:06:36;27.00;99.90
27781;DHT22;15167;1.318;103.762;2022-12-07T02:09:03;27.10;99.90
27781;DHT22;15167;1.318;103.762;2022-12-07T02:11:30;27.00;99.90
27781;DHT22;15167;1.318;103.762;2022-12-07T02:13:56;27.10;99.90
27781;DHT22;15167;1.318;103.762;2022-12-07T02:21:50;27.30;99.90
27781;DHT22;15167;1.318;103.762;2022-12-07T02:27:01;27.40;99.90
27781;DHT22;15167;1.318;103.762;2022-12-07T02:34:47;27.40;99.90
27781;DHT22;15167;1.318;103.762;2022-12-07T02:40:08;27.50;99.90
27781;DHT22;15167;1.318;103.762;2022-12-07T02:42:42;27.50;99.90
27781;DHT22;15167;1.318;103.762;2022-12-07T02:45:12;27.50;99.90
27781;DHT22;15167;1.318;103.762;2022-12-07T02:47:39;27.60;99.90
27781;DHT22;15167;1.318;103.762;2022-12-07T02:50:06;27.70;99.90
27781;DHT22;15167;1.318;103.762;2022-12-07T02:52:33;27.70;99.90
27781;DHT22;15167;1.318;103.762;2022-12-07T02:54:59;27.70;99.90
27781;DHT22;15167;1.318;103.762;2022-12-07T03:00:10;27.90;99.90
27781;DHT22;15167;1.318;103.762;2022-12-07T03:02:39;27.80;99.90
27781;DHT22;15167;1.318;103.762;2022-12-07T03:15:39;28.10;99.90
27781;DHT22;15167;1.318;103.762;2022-12-07T03:18:06;28.10;99.90
27781;DHT22;15167;1.318;103.762;2022-12-07T03:20:33;28.10;99.90
27781;DHT22;15167;1.318;103.762;2022-12-07T03:23:01;28.00;99.90
27781;DHT22;15167;1.318;103.762;2022-12-07T03:25:29;27.90;99.90
27781;DHT22;15167;1.318;103.762;2022-12-07T03:27:59;27.90;99.90
27781;DHT22;15167;1.318;103.762;2022-12-07T03:30:31;27.90;99.90
27781;DHT22;15167;1.318;103.762;2022-12-07T03:33:03;28.00;99.90
27781;DHT22;15167;1.318;103.762;2022-12-07T03:35:32;28.00;99.90
27781;DHT22;15167;1.318;103.762;2022-12-07T03:37:59;27.90;99.90
27781;DHT22;15167;1.318;103.762;2022-12-07T03:41:00;28.00;99.90
27781;DHT22;15167;1.318;103.762;2022-12-07T03:43:18;28.00;99.90
27781;DHT22;15167;1.318;103.762;2022-12-07T03:45:49;28.10;99.90
27781;DHT22;15167;1.318;103.762;2022-12-07T03:48:24;28.30;99.90
27781;DHT22;15167;1.318;103.762;2022-12-07T03:51:33;28.50;99.90
27781;DHT22;15167;1.318;103.762;2022-12-07T03:53:42;28.70;99.90
27781;DHT22;15167;1.318;103.762;2022-12-07T03:56:10;28.60;99.90
27781;DHT22;15167;1.318;103.762;2022-12-07T03:58:36;28.50;99.90
27781;DHT22;15167;1.318;103.762;2022-12-07T04:01:03;28.50;99.90
27781;DHT22;15167;1.318;103.762;2022-12-07T04:03:29;28.60;99.90
27781;DHT22;15167;1.318;103.762;2022-12-07T04:05:55;28.70;99.90
27781;DHT22;15167;1.318;103.762;2022-12-07T04:08:21;28.60;99.90
27781;DHT22;15167;1.318;103.762;2022-12-07T04:10:47;28.60;99.90
27781;DHT22;15167;1.318;103.762;2022-12-07T04:13:13;28.70;99.90
27781;DHT22;15167;1.318;103.762;2022-12-07T04:15:39;28.70;99.90
27781;DHT22;15167;1.318;103.762;2022-12-07T04:18:06;28.80;99.90
27781;DHT22;15167;1.318;103.762;2022-12-07T04:20:32;28.80;99.90
27781;DHT22;15167;1.318;103.762;2022-12-07T04:22:58;28.70;99.90
27781;DHT22;15167;1.318;103.762;2022-12-07T04:25:24;28.40;99.90
27781;DHT22;15167;1.318;103.762;2022-12-07T04:27:50;28.20;99.90
27781;DHT22;15167;1.318;103.762;2022-12-07T04:30:19;28.30;99.90
27781;DHT22;15167;1.318;103.762;2022-12-07T04:32:45;28.40;99.90
27781;DHT22;15167;1.318;103.762;2022-12-07T04:35:11;28.50;99.90
27781;DHT22;15167;1.318;103.762;2022-12-07T04:37:37;28.50;99.90
27781;DHT22;15167;1.318;103.762;2022-12-07T04:40:06;28.60;99.90
27781;DHT22;15167;1.318;103.762;2022-12-07T04:42:33;28.60;99.90
27781;DHT22;15167;1.318;103.762;2022-12-07T04:44:59;28.60;99.90
27781;DHT22;15167;1.318;103.762;2022-12-07T04:47:25;28.60;99.90
27781;DHT22;15167;1.318;103.762;2022-12-07T04:49:51;28.70;99.90
27781;DHT22;15167;1.318;103.762;2022-12-07T04:52:17;28.80;99.90
27781;DHT22;15167;1.318;103.762;2022-12-07T04:54:43;28.70;99.90
27781;DHT22;15167;1.318;103.762;2022-12-07T04:57:09;28.70;99.90
27781;DHT22;15167;1.318;103.762;2022-12-07T04:59:35;28.70;99.90
27781;DHT22;15167;1.318;103.762;2022-12-07T05:02:01;28.70;99.90
27781;DHT22;15167;1.318;103.762;2022-12-07T05:04:27;28.70;99.90
27781;DHT22;15167;1.318;103.762;2022-12-07T05:06:53;28.80;99.90
27781;DHT22;15167;1.318;103.762;2022-12-07T05:09:19;29.00;99.90
27781;DHT22;15167;1.318;103.762;2022-12-07T05:11:45;29.30;99.90
27781;DHT22;15167;1.318;103.762;2022-12-07T05:14:13;29.30;99.90
27781;DHT22;15167;1.318;103.762;2022-12-07T05:16:40;29.20;99.90
27781;DHT22;15167;1.318;103.762;2022-12-07T05:19:06;29.10;99.90
27781;DHT22;15167;1.318;103.762;2022-12-07T05:21:33;29.20;99.90
27781;DHT22;15167;1.318;103.762;2022-12-07T05:23:59;29.20;99.90
27781;DHT22;15167;1.318;103.762;2022-12-07T05:26:25;29.30;99.90
27781;DHT22;15167;1.318;103.762;2022-12-07T05:28:51;29.30;99.90
27781;DHT22;15167;1.318;103.762;2022-12-07T05:31:18;29.30;99.90
27781;DHT22;15167;1.318;103.762;2022-12-07T05:33:44;29.30;99.90
27781;DHT22;15167;1.318;103.762;2022-12-07T05:36:10;28.60;99.90
27781;DHT22;15167;1.318;103.762;2022-12-07T05:38:36;29.40;99.90
27781;DHT22;15167;1.318;103.762;2022-12-07T05:41:03;29.50;99.90
27781;DHT22;15167;1.318;103.762;2022-12-07T05:43:29;29.60;99.90
27781;DHT22;15167;1.318;103.762;2022-12-07T05:45:56;29.60;99.90
27781;DHT22;15167;1.318;103.762;2022-12-07T05:48:22;29.60;99.90
27781;DHT22;15167;1.318;103.762;2022-12-07T05:50:49;29.50;99.90
27781;DHT22;15167;1.318;103.762;2022-12-07T05:53:15;29.50;99.90
27781;DHT22;15167;1.318;103.762;2022-12-07T05:55:41;29.60;99.90
27781;DHT22;15167;1.318;103.762;2022-12-07T05:58:08;29.50;99.90
27781;DHT22;15167;1.318;103.762;2022-12-07T06:00:54;29.60;99.90
27781;DHT22;15167;1.318;103.762;2022-12-07T06:03:20;29.80;99.90
27781;DHT22;15167;1.318;103.762;2022-12-07T06:05:46;29.90;99.90
27781;DHT22;15167;1.318;103.762;2022-12-07T06:08:12;29.80;99.90
27781;DHT22;15167;1.318;103.762;2022-12-07T06:10:40;29.80;99.90
27781;DHT22;15167;1.318;103.762;2022-12-07T06:13:07;30.00;99.90
27781;DHT22;15167;1.318;103.762;2022-12-07T06:15:36;30.10;99.90
27781;DHT22;15167;1.318;103.762;2022-12-07T06:18:03;30.20;99.90
27781;DHT22;15167;1.318;103.762;2022-12-07T06:20:29;30.10;99.90
27781;DHT22;15167;1.318;103.762;2022-12-07T06:22:55;30.00;99.90
27781;DHT22;15167;1.318;103.762;2022-12-07T06:25:21;30.10;99.90
27781;DHT22;15167;1.318;103.762;2022-12-07T06:27:47;30.00;99.90
27781;DHT22;15167;1.318;103.762;2022-12-07T06:30:13;30.10;99.90
27781;DHT22;15167;1.318;103.762;2022-12-07T06:32:39;30.10;99.90
27781;DHT22;15167;1.318;103.762;2022-12-07T06:35:06;29.90;99.90
27781;DHT22;15167;1.318;103.762;2022-12-07T06:37:32;29.90;99.90
27781;DHT22;15167;1.318;103.762;2022-12-07T06:39:58;29.90;99.90
27781;DHT22;15167;1.318;103.762;2022-12-07T06:42:24;29.80;99.90
27781;DHT22;15167;1.318;103.762;2022-12-07T06:44:50;29.70;99.90
27781;DHT22;15167;1.318;103.762;2022-12-07T06:47:16;29.70;99.90
27781;DHT22;15167;1.318;103.762;2022-12-07T06:49:42;29.70;99.90
27781;DHT22;15167;1.318;103.762;2022-12-07T06:52:08;29.70;99.90
27781;DHT22;15167;1.318;103.762;2022-12-07T06:54:34;29.60;99.90
27781;DHT22;15167;1.318;103.762;2022-12-07T06:57:00;29.60;99.90
27781;DHT22;15167;1.318;103.762;2022-12-07T06:59:27;29.60;99.90
27781;DHT22;15167;1.318;103.762;2022-12-07T07:01:53;29.60;99.90
27781;DHT22;15167;1.318;103.762;2022-12-07T07:04:19;29.60;99.90
27781;DHT22;15167;1.318;103.762;2022-12-07T07:06:45;29.60;99.90
27781;DHT22;15167;1.318;103.762;2022-12-07T07:09:11;29.60;99.90
27781;DHT22;15167;1.318;103.762;2022-12-07T07:11:37;29.60;99.90
27781;DHT22;15167;1.318;103.762;2022-12-07T07:14:03;29.60;99.90
27781;DHT22;15167;1.318;103.762;2022-12-07T07:16:30;29.50;99.90
27781;DHT22;15167;1.318;103.762;2022-12-07T07:18:56;29.40;99.90
27781;DHT22;15167;1.318;103.762;2022-12-07T07:21:22;29.40;99.90
27781;DHT22;15167;1.318;103.762;2022-12-07T07:23:48;29.30;99.90
27781;DHT22;15167;1.318;103.762;2022-12-07T07:26:15;29.30;99.90
27781;DHT22;15167;1.318;103.762;2022-12-07T07:28:41;29.20;99.90
27781;DHT22;15167;1.318;103.762;2022-12-07T07:31:07;29.10;99.90
27781;DHT22;15167;1.318;103.762;2022-12-07T07:33:33;29.10;99.90
27781;DHT22;15167;1.318;103.762;2022-12-07T07:35:59;29.00;99.90
27781;DHT22;15167;1.318;103.762;2022-12-07T07:38:25;28.80;99.90
27781;DHT22;15167;1.318;103.762;2022-12-07T07:40:51;28.70;99.90
27781;DHT22;15167;1.318;103.762;2022-12-07T07:43:17;28.70;99.90
27781;DHT22;15167;1.318;103.762;2022-12-07T07:45:44;28.60;99.90
27781;DHT22;15167;1.318;103.762;2022-12-07T07:48:10;28.50;99.90
27781;DHT22;15167;1.318;103.762;2022-12-07T07:50:36;28.50;99.90
27781;DHT22;15167;1.318;103.762;2022-12-07T07:53:02;28.40;99.90
27781;DHT22;15167;1.318;103.762;2022-12-07T07:55:28;28.40;99.90
27781;DHT22;15167;1.318;103.762;2022-12-07T07:57:54;28.30;99.90
27781;DHT22;15167;1.318;103.762;2022-12-07T08:00:20;28.30;99.90
27781;DHT22;15167;1.318;103.762;2022-12-07T08:02:47;28.30;99.90
27781;DHT22;15167;1.318;103.762;2022-12-07T08:05:13;28.30;99.90
27781;DHT22;15167;1.318;103.762;2022-12-07T08:07:39;28.30;99.90
27781;DHT22;15167;1.318;103.762;2022-12-07T08:10:06;28.40;99.90
27781;DHT22;15167;1.318;103.762;2022-12-07T08:12:35;28.50;99.90
27781;DHT22;15167;1.318;103.762;2022-12-07T08:15:01;28.50;99.90
27781;DHT22;15167;1.318;103.762;2022-12-07T08:17:27;28.60;99.90
27781;DHT22;15167;1.318;103.762;2022-12-07T08:19:53;28.60;99.90
27781;DHT22;15167;1.318;103.762;2022-12-07T08:22:20;28.60;99.90
27781;DHT22;15167;1.318;103.762;2022-12-07T08:24:46;28.60;99.90
27781;DHT22;15167;1.318;103.762;2022-12-07T08:27:12;28.60;99.90
27781;DHT22;15167;1.318;103.762;2022-12-07T08:29:38;28.60;99.90
27781;DHT22;15167;1.318;103.762;2022-12-07T08:32:04;28.60;99.90
27781;DHT22;15167;1.318;103.762;2022-12-07T08:34:30;28.50;99.90
27781;DHT22;15167;1.318;103.762;2022-12-07T08:36:56;28.60;99.90
27781;DHT22;15167;1.318;103.762;2022-12-07T08:39:23;28.50;99.90
27781;DHT22;15167;1.318;103.762;2022-12-07T08:41:49;28.50;99.90
27781;DHT22;15167;1.318;103.762;2022-12-07T08:44:15;28.50;99.90
27781;DHT22;15167;1.318;103.762;2022-12-07T08:46:45;28.40;99.90
27781;DHT22;15167;1.318;103.762;2022-12-07T08:49:17;28.20;99.90
27781;DHT22;15167;1.318;103.762;2022-12-07T08:51:44;28.20;99.90
27781;DHT22;15167;1.318;103.762;2022-12-07T08:54:11;27.20;99.90
27781;DHT22;15167;1.318;103.762;2022-12-07T08:56:38;25.80;99.90
27781;DHT22;15167;1.318;103.762;2022-12-07T08:59:04;25.20;99.90
27781;DHT22;15167;1.318;103.762;2022-12-07T09:01:31;25.30;99.90
27781;DHT22;15167;1.318;103.762;2022-12-07T09:03:57;25.40;99.90
27781;DHT22;15167;1.318;103.762;2022-12-07T09:06:23;25.20;99.90
27781;DHT22;15167;1.318;103.762;2022-12-07T09:08:50;25.40;99.90
27781;DHT22;15167;1.318;103.762;2022-12-07T09:11:17;25.70;99.90
27781;DHT22;15167;1.318;103.762;2022-12-07T09:13:43;25.70;99.90
27781;DHT22;15167;1.318;103.762;2022-12-07T09:16:09;25.90;99.90
27781;DHT22;15167;1.318;103.762;2022-12-07T09:18:35;26.20;99.90
27781;DHT22;15167;1.318;103.762;2022-12-07T09:21:01;26.30;99.90
27781;DHT22;15167;1.318;103.762;2022-12-07T09:23:27;26.50;99.90
27781;DHT22;15167;1.318;103.762;2022-12-07T09:25:53;26.70;99.90
27781;DHT22;15167;1.318;103.762;2022-12-07T09:28:19;26.80;99.90
27781;DHT22;15167;1.318;103.762;2022-12-07T09:30:46;27.00;99.90
27781;DHT22;15167;1.318;103.762;2022-12-07T09:33:13;27.10;99.90
27781;DHT22;15167;1.318;103.762;2022-12-07T09:35:43;27.20;99.90
27781;DHT22;15167;1.318;103.762;2022-12-07T09:38:10;27.30;99.90
27781;DHT22;15167;1.318;103.762;2022-12-07T09:40:36;27.30;99.90
27781;DHT22;15167;1.318;103.762;2022-12-07T09:43:02;27.30;99.90
27781;DHT22;15167;1.318;103.762;2022-12-07T09:45:35;27.30;99.90
27781;DHT22;15167;1.318;103.762;2022-12-07T09:48:02;27.30;99.90
27781;DHT22;15167;1.318;103.762;2022-12-07T09:50:29;27.30;99.90
27781;DHT22;15167;1.318;103.762;2022-12-07T09:53:01;27.30;99.90
27781;DHT22;15167;1.318;103.762;2022-12-07T09:55:29;27.30;99.90
27781;DHT22;15167;1.318;103.762;2022-12-07T09:57:56;27.30;99.90
27781;DHT22;15167;1.318;103.762;2022-12-07T10:00:23;27.40;99.90
27781;DHT22;15167;1.318;103.762;2022-12-07T10:02:55;27.40;99.90
27781;DHT22;15167;1.318;103.762;2022-12-07T10:05:28;27.40;99.90
27781;DHT22;15167;1.318;103.762;2022-12-07T10:07:55;27.50;99.90
27781;DHT22;15167;1.318;103.762;2022-12-07T10:10:23;27.50;99.90
27781;DHT22;15167;1.318;103.762;2022-12-07T10:12:57;27.50;99.90
27781;DHT22;15167;1.318;103.762;2022-12-07T10:15:39;27.50;99.90
27781;DHT22;15167;1.318;103.762;2022-12-07T10:18:15;27.60;99.90
27781;DHT22;15167;1.318;103.762;2022-12-07T10:20:43;27.60;99.90
27781;DHT22;15167;1.318;103.762;2022-12-07T10:23:14;27.60;99.90
27781;DHT22;15167;1.318;103.762;2022-12-07T10:25:40;27.60;99.90
27781;DHT22;15167;1.318;103.762;2022-12-07T10:30:47;27.60;99.90
27781;DHT22;15167;1.318;103.762;2022-12-07T10:35:55;27.40;99.90
27781;DHT22;15167;1.318;103.762;2022-12-07T10:38:21;27.40;99.90
27781;DHT22;15167;1.318;103.762;2022-12-07T10:40:47;27.40;99.90
27781;DHT22;15167;1.318;103.762;2022-12-07T10:43:28;27.40;99.90
27781;DHT22;15167;1.318;103.762;2022-12-07T11:01:24;27.20;99.90
27781;DHT22;15167;1.318;103.762;2022-12-07T11:14:41;27.10;99.90
27781;DHT22;15167;1.318;103.762;2022-12-07T11:17:14;27.00;99.90
27781;DHT22;15167;1.318;103.762;2022-12-07T11:37:21;27.20;99.90
27781;DHT22;15167;1.318;103.762;2022-12-07T11:39:51;27.20;99.90
27781;DHT22;15167;1.318;103.762;2022-12-07T11:42:22;27.20;99.90
27781;DHT22;15167;1.318;103.762;2022-12-07T11:47:22;27.20;99.90
27781;DHT22;15167;1.318;103.762;2022-12-07T11:50:05;27.30;99.90
27781;DHT22;15167;1.318;103.762;2022-12-07T11:52:47;27.30;99.90
27781;DHT22;15167;1.318;103.762;2022-12-07T11:57:56;27.40;99.90
27781;DHT22;15167;1.318;103.762;2022-12-07T12:00:24;27.40;99.90
27781;DHT22;15167;1.318;103.762;2022-12-07T12:05:48;27.50;99.90
27781;DHT22;15167;1.318;103.762;2022-12-07T12:08:16;27.50;99.90
27781;DHT22;15167;1.318;103.762;2022-12-07T12:13:33;27.50;99.90
27781;DHT22;15167;1.318;103.762;2022-12-07T12:21:27;27.40;99.90
27781;DHT22;15167;1.318;103.762;2022-12-07T12:23:56;27.40;99.90
27781;DHT22;15167;1.318;103.762;2022-12-07T12:26:23;27.40;99.90
27781;DHT22;15167;1.318;103.762;2022-12-07T12:33:47;27.40;99.90
27781;DHT22;15167;1.318;103.762;2022-12-07T12:41:14;27.40;99.90
27781;DHT22;15167;1.318;103.762;2022-12-07T12:43:58;27.40;99.90
27781;DHT22;15167;1.318;103.762;2022-12-07T12:49:25;27.40;99.90
27781;DHT22;15167;1.318;103.762;2022-12-07T12:54:28;27.30;99.90
27781;DHT22;15167;1.318;103.762;2022-12-07T12:56:57;27.30;99.90
27781;DHT22;15167;1.318;103.762;2022-12-07T13:01:53;27.30;99.90
27781;DHT22;15167;1.318;103.762;2022-12-07T13:06:46;27.40;99.90
27781;DHT22;15167;1.318;103.762;2022-12-07T13:09:19;27.40;99.90
27781;DHT22;15167;1.318;103.762;2022-12-07T13:11:47;27.40;99.90
27781;DHT22;15167;1.318;103.762;2022-12-07T13:16:58;27.30;99.90
27781;DHT22;15167;1.318;103.762;2022-12-07T13:27:25;27.30;99.90
27781;DHT22;15167;1.318;103.762;2022-12-07T13:29:52;27.30;99.90
27781;DHT22;15167;1.318;103.762;2022-12-07T13:32:23;27.20;99.90
27781;DHT22;15167;1.318;103.762;2022-12-07T13:34:50;27.20;99.90
27781;DHT22;15167;1.318;103.762;2022-12-07T13:39:55;27.20;99.90
27781;DHT22;15167;1.318;103.762;2022-12-07T13:44:48;27.30;99.90
27781;DHT22;15167;1.318;103.762;2022-12-07T13:47:19;27.30;99.90
27781;DHT22;15167;1.318;103.762;2022-12-07T13:49:48;27.30;99.90
27781;DHT22;15167;1.318;103.762;2022-12-07T13:52:18;27.30;99.90
27781;DHT22;15167;1.318;103.762;2022-12-07T13:54:49;27.30;99.90
27781;DHT22;15167;1.318;103.762;2022-12-07T13:57:21;27.30;99.90
27781;DHT22;15167;1.318;103.762;2022-12-07T13:59:47;27.40;99.90
27781;DHT22;15167;1.318;103.762;2022-12-07T14:02:20;27.40;99.90
27781;DHT22;15167;1.318;103.762;2022-12-07T14:04:48;27.40;99.90
27781;DHT22;15167;1.318;103.762;2022-12-07T14:07:19;27.30;99.90
27781;DHT22;15167;1.318;103.762;2022-12-07T14:10:22;27.30;99.90
27781;DHT22;15167;1.318;103.762;2022-12-07T14:12:32;27.30;99.90
27781;DHT22;15167;1.318;103.762;2022-12-07T14:15:01;27.30;99.90
27781;DHT22;15167;1.318;103.762;2022-12-07T14:17:28;27.30;99.90
27781;DHT22;15167;1.318;103.762;2022-12-07T14:19:55;27.30;99.90
27781;DHT22;15167;1.318;103.762;2022-12-07T14:24:48;27.30;99.90
27781;DHT22;15167;1.318;103.762;2022-12-07T14:27:21;27.30;99.90
27781;DHT22;15167;1.318;103.762;2022-12-07T14:29:48;27.30;99.90
27781;DHT22;15167;1.318;103.762;2022-12-07T14:32:22;27.20;99.90
27781;DHT22;15167;1.318;103.762;2022-12-07T14:35:00;27.20;99.90
27781;DHT22;15167;1.318;103.762;2022-12-07T14:37:27;27.30;99.90
27781;DHT22;15167;1.318;103.762;2022-12-07T14:39:53;27.20;99.90
27781;DHT22;15167;1.318;103.762;2022-12-07T14:42:19;27.20;99.90
27781;DHT22;15167;1.318;103.762;2022-12-07T14:44:46;27.20;99.90
27781;DHT22;15167;1.318;103.762;2022-12-07T14:47:12;27.30;99.90
27781;DHT22;15167;1.318;103.762;2022-12-07T14:49:38;27.20;99.90
27781;DHT22;15167;1.318;103.762;2022-12-07T14:52:04;27.20;99.90
27781;DHT22;15167;1.318;103.762;2022-12-07T14:54:32;27.20;99.90
27781;DHT22;15167;1.318;103.762;2022-12-07T14:56:58;27.20;99.90
27781;DHT22;15167;1.318;103.762;2022-12-07T14:59:24;27.10;99.90
27781;DHT22;15167;1.318;103.762;2022-12-07T15:01:50;27.10;99.90
27781;DHT22;15167;1.318;103.762;2022-12-07T15:04:16;27.10;99.90
27781;DHT22;15167;1.318;103.762;2022-12-07T15:06:53;27.00;99.90
27781;DHT22;15167;1.318;103.762;2022-12-07T15:09:20;27.10;99.90
27781;DHT22;15167;1.318;103.762;2022-12-07T15:11:46;27.00;99.90
27781;DHT22;15167;1.318;103.762;2022-12-07T15:14:12;27.00;99.90
27781;DHT22;15167;1.318;103.762;2022-12-07T15:16:40;27.00;99.90
27781;DHT22;15167;1.318;103.762;2022-12-07T15:19:13;26.90;99.90
27781;DHT22;15167;1.318;103.762;2022-12-07T15:21:40;26.90;99.90
27781;DHT22;15167;1.318;103.762;2022-12-07T15:24:07;26.90;99.90
27781;DHT22;15167;1.318;103.762;2022-12-07T15:26:34;26.80;99.90
27781;DHT22;15167;1.318;103.762;2022-12-07T15:29:00;26.80;99.90
27781;DHT22;15167;1.318;103.762;2022-12-07T15:31:26;26.70;99.90
27781;DHT22;15167;1.318;103.762;2022-12-07T15:33:52;26.70;99.90
27781;DHT22;15167;1.318;103.762;2022-12-07T15:36:22;26.70;99.90
27781;DHT22;15167;1.318;103.762;2022-12-07T15:38:48;26.70;99.90
27781;DHT22;15167;1.318;103.762;2022-12-07T15:41:15;26.70;99.90
27781;DHT22;15167;1.318;103.762;2022-12-07T15:43:41;26.80;99.90
27781;DHT22;15167;1.318;103.762;2022-12-07T15:46:29;26.80;99.90
27781;DHT22;15167;1.318;103.762;2022-12-07T15:48:56;26.80;99.90
27781;DHT22;15167;1.318;103.762;2022-12-07T15:51:22;26.70;99.90
27781;DHT22;15167;1.318;103.762;2022-12-07T15:53:48;26.70;99.90
27781;DHT22;15167;1.318;103.762;2022-12-07T15:56:14;26.70;99.90
27781;DHT22;15167;1.318;103.762;2022-12-07T15:58:41;26.70;99.90
27781;DHT22;15167;1.318;103.762;2022-12-07T16:01:10;26.70;99.90
27781;DHT22;15167;1.318;103.762;2022-12-07T16:03:37;26.70;99.90
27781;DHT22;15167;1.318;103.762;2022-12-07T16:06:03;26.60;99.90
27781;DHT22;15167;1.318;103.762;2022-12-07T16:08:29;26.60;99.90
27781;DHT22;15167;1.318;103.762;2022-12-07T16:10:55;26.60;99.90
27781;DHT22;15167;1.318;103.762;2022-12-07T16:13:22;26.60;99.90
27781;DHT22;15167;1.318;103.762;2022-12-07T16:15:48;26.60;99.90
27781;DHT22;15167;1.318;103.762;2022-12-07T16:18:14;26.60;99.90
27781;DHT22;15167;1.318;103.762;2022-12-07T16:20:40;26.60;99.90
27781;DHT22;15167;1.318;103.762;2022-12-07T16:23:06;26.60;99.90
27781;DHT22;15167;1.318;103.762;2022-12-07T16:25:32;26.50;99.90
27781;DHT22;15167;1.318;103.762;2022-12-07T16:27:59;26.60;99.90
27781;DHT22;15167;1.318;103.762;2022-12-07T16:30:25;26.50;99.90
27781;DHT22;15167;1.318;103.762;2022-12-07T16:32:51;26.50;99.90
27781;DHT22;15167;1.318;103.762;2022-12-07T16:35:17;26.50;99.90
27781;DHT22;15167;1.318;103.762;2022-12-07T16:37:43;26.50;99.90
27781;DHT22;15167;1.318;103.762;2022-12-07T16:40:09;26.50;99.90
27781;DHT22;15167;1.318;103.762;2022-12-07T16:42:36;26.60;99.90
27781;DHT22;15167;1.318;103.762;2022-12-07T16:45:02;26.50;99.90
27781;DHT22;15167;1.318;103.762;2022-12-07T16:47:28;26.60;99.90
27781;DHT22;15167;1.318;103.762;2022-12-07T16:49:55;26.50;99.90
27781;DHT22;15167;1.318;103.762;2022-12-07T16:52:21;26.50;99.90
27781;DHT22;15167;1.318;103.762;2022-12-07T16:54:47;26.50;99.90
27781;DHT22;15167;1.318;103.762;2022-12-07T16:57:14;26.50;99.90
27781;DHT22;15167;1.318;103.762;2022-12-07T16:59:40;26.40;99.90
27781;DHT22;15167;1.318;103.762;2022-12-07T17:02:06;26.40;99.90
27781;DHT22;15167;1.318;103.762;2022-12-07T17:04:32;26.50;99.90
27781;DHT22;15167;1.318;103.762;2022-12-07T17:06:59;26.50;99.90
27781;DHT22;15167;1.318;103.762;2022-12-07T17:09:25;26.50;99.90
27781;DHT22;15167;1.318;103.762;2022-12-07T17:11:51;26.50;99.90
27781;DHT22;15167;1.318;103.762;2022-12-07T17:14:17;26.60;99.90
27781;DHT22;15167;1.318;103.762;2022-12-07T17:17:01;26.50;99.90
27781;DHT22;15167;1.318;103.762;2022-12-07T17:19:28;26.40;99.90
27781;DHT22;15167;1.318;103.762;2022-12-07T17:21:54;26.40;99.90
27781;DHT22;15167;1.318;103.762;2022-12-07T17:24:20;26.40;99.90
27781;DHT22;15167;1.318;103.762;2022-12-07T17:26:46;26.40;99.90
27781;DHT22;15167;1.318;103.762;2022-12-07T17:29:13;26.30;99.90
27781;DHT22;15167;1.318;103.762;2022-12-07T17:31:40;26.30;99.90
27781;DHT22;15167;1.318;103.762;2022-12-07T17:34:13;26.20;99.90